createdAt,value
2023-04-30T00:00:44.810Z,9.75
2023-04-30T00:03:15.888Z,9.65
2023-04-30T00:05:44.341Z,9.71
2023-04-30T00:08:12.789Z,9.63
2023-04-30T00:10:41.666Z,9.58
2023-04-30T00:13:10.349Z,9.52
2023-04-30T00:15:38.893Z,9.69
2023-04-30T00:18:08.833Z,9.69
2023-04-30T00:20:37.079Z,9.61
2023-04-30T00:23:05.270Z,9.52
2023-04-30T00:25:33.490Z,9.68
2023-04-30T00:28:01.694Z,9.59
2023-04-30T00:30:30.256Z,9.45
2023-04-30T00:32:58.449Z,9.62
2023-04-30T00:35:28.016Z,9.57
2023-04-30T00:37:56.235Z,9.62
2023-04-30T00:40:24.435Z,9.64
2023-04-30T00:42:55.730Z,9.61
2023-04-30T00:45:24.223Z,9.43
2023-04-30T00:47:52.567Z,9.48
2023-04-30T00:50:21.120Z,9.48
2023-04-30T00:52:50.634Z,9.52
2023-04-30T00:55:20.026Z,9.63
2023-04-30T00:57:48.533Z,9.55
2023-04-30T01:00:17.568Z,9.61
2023-04-30T01:02:47.236Z,9.51
2023-04-30T01:05:15.757Z,9.51
2023-04-30T01:07:46.190Z,9.58
2023-04-30T01:10:16.665Z,9.54
2023-04-30T01:12:53.958Z,9.53
2023-04-30T01:15:29.484Z,9.48
2023-04-30T01:18:05.349Z,9.50
2023-04-30T01:20:34.914Z,9.49
2023-04-30T01:23:19.065Z,9.36
2023-04-30T01:26:07.090Z,9.43
2023-04-30T01:28:38.316Z,9.38
2023-04-30T01:31:14.725Z,9.45
2023-04-30T01:33:43.380Z,9.36
2023-04-30T01:36:39.194Z,9.35
2023-04-30T01:39:37.834Z,9.35
2023-04-30T01:42:14.237Z,9.04
2023-04-30T01:45:20.206Z,9.40
2023-04-30T01:47:54.507Z,9.34
2023-04-30T01:50:33.075Z,9.36
2023-04-30T01:53:03.503Z,9.44
2023-04-30T01:55:37.889Z,8.98
2023-04-30T01:58:08.688Z,9.26
2023-04-30T02:00:38.255Z,9.27
2023-04-30T02:03:07.746Z,9.20
2023-04-30T02:05:36.532Z,9.31
2023-04-30T02:08:13.639Z,9.26
2023-04-30T02:13:34.770Z,9.27
2023-04-30T02:16:05.158Z,9.32
2023-04-30T02:18:33.389Z,9.30
2023-04-30T02:21:01.587Z,9.23
2023-04-30T02:23:29.776Z,9.13
2023-04-30T02:25:57.936Z,9.14
2023-04-30T02:28:26.138Z,9.13
2023-04-30T02:30:54.295Z,9.04
2023-04-30T02:33:23.828Z,9.08
2023-04-30T02:35:51.958Z,9.08
2023-04-30T02:38:20.116Z,9.00
2023-04-30T02:40:48.285Z,8.99
2023-04-30T02:43:16.462Z,8.97
2023-04-30T02:45:44.670Z,8.96
2023-04-30T02:48:12.958Z,9.02
2023-04-30T02:50:42.782Z,8.41
2023-04-30T02:53:11.282Z,8.97
2023-04-30T02:55:39.438Z,8.87
2023-04-30T02:58:07.738Z,8.89
2023-04-30T03:00:36.157Z,8.85
2023-04-30T03:03:04.739Z,8.86
2023-04-30T03:05:32.958Z,8.82
2023-04-30T03:08:02.488Z,8.89
2023-04-30T03:10:30.691Z,8.89
2023-04-30T03:12:58.915Z,8.81
2023-04-30T03:15:27.099Z,8.82
2023-04-30T03:17:55.361Z,8.77
2023-04-30T03:20:23.916Z,8.86
2023-04-30T03:22:52.258Z,8.88
2023-04-30T03:25:21.891Z,8.90
2023-04-30T03:27:50.109Z,7.87
2023-04-30T03:30:18.334Z,9.05
2023-04-30T03:32:46.606Z,8.88
2023-04-30T03:35:14.868Z,8.96
2023-04-30T03:37:43.475Z,8.90
2023-04-30T03:40:13.986Z,9.02
2023-04-30T03:42:44.529Z,8.92
2023-04-30T03:45:13.279Z,8.95
2023-04-30T03:47:41.988Z,8.96
2023-04-30T03:50:12.072Z,8.96
2023-04-30T03:52:40.276Z,8.97
2023-04-30T03:55:09.601Z,9.06
2023-04-30T03:57:37.998Z,8.97
2023-04-30T04:00:10.308Z,8.90
2023-04-30T04:02:41.864Z,8.92
2023-04-30T04:05:12.504Z,8.99
2023-04-30T04:07:42.703Z,8.96
2023-04-30T04:10:11.983Z,8.88
2023-04-30T04:12:40.296Z,8.80
2023-04-30T04:15:11.326Z,8.89
2023-04-30T04:17:39.672Z,8.91
2023-04-30T04:20:12.629Z,8.97
2023-04-30T04:22:42.159Z,8.87
2023-04-30T04:25:11.956Z,8.91
2023-04-30T04:27:41.092Z,8.97
2023-04-30T04:30:12.240Z,8.94
2023-04-30T04:32:46.674Z,8.89
2023-04-30T04:35:15.333Z,8.75
2023-04-30T04:37:44.092Z,8.92
2023-04-30T04:40:13.545Z,8.91
2023-04-30T04:42:42.424Z,8.92
2023-04-30T04:45:12.672Z,9.03
2023-04-30T04:47:41.516Z,8.92
2023-04-30T04:50:12.832Z,8.91
2023-04-30T04:52:42.447Z,8.88
2023-04-30T04:55:12.154Z,8.98
2023-04-30T04:57:42.017Z,9.07
2023-04-30T05:00:13.149Z,9.04
2023-04-30T05:02:42.305Z,8.93
2023-04-30T05:05:11.506Z,9.05
2023-04-30T05:07:39.821Z,9.05
2023-04-30T05:10:10.026Z,9.00
2023-04-30T05:12:40.757Z,9.00
2023-04-30T05:15:11.645Z,8.96
2023-04-30T05:17:39.889Z,8.96
2023-04-30T05:20:10.254Z,8.94
2023-04-30T05:22:39.416Z,9.06
2023-04-30T05:25:09.088Z,9.17
2023-04-30T05:27:37.746Z,9.30
2023-04-30T05:30:09.393Z,9.23
2023-04-30T05:32:39.075Z,9.45
2023-04-30T05:35:08.582Z,8.31
2023-04-30T05:37:36.790Z,9.55
2023-04-30T05:40:06.673Z,9.51
2023-04-30T05:42:34.868Z,9.66
2023-04-30T05:45:03.398Z,9.79
2023-04-30T05:47:31.634Z,9.82
2023-04-30T05:50:01.597Z,9.81
2023-04-30T05:52:29.752Z,9.96
2023-04-30T05:54:57.939Z,10.06
2023-04-30T05:57:26.336Z,10.10
2023-04-30T05:59:54.886Z,10.12
2023-04-30T06:02:23.581Z,10.15
2023-04-30T06:04:52.361Z,10.21
2023-04-30T06:07:33.447Z,10.12
2023-04-30T06:10:05.323Z,10.22
2023-04-30T06:12:34.519Z,10.81
2023-04-30T06:15:02.832Z,10.44
2023-04-30T06:17:31.473Z,10.41
2023-04-30T06:20:02.368Z,10.40
2023-04-30T06:22:34.149Z,10.63
2023-04-30T06:25:03.476Z,10.63
2023-04-30T06:27:32.465Z,10.83
2023-04-30T06:30:01.197Z,10.93
2023-04-30T06:32:29.417Z,10.91
2023-04-30T06:34:57.589Z,11.06
2023-04-30T06:37:25.806Z,11.03
2023-04-30T06:39:55.569Z,11.07
2023-04-30T06:42:24.178Z,11.23
2023-04-30T06:44:52.527Z,11.25
2023-04-30T06:47:20.861Z,11.16
2023-04-30T06:49:49.364Z,11.29
2023-04-30T06:52:17.523Z,11.55
2023-04-30T06:54:45.734Z,11.48
2023-04-30T06:57:15.622Z,11.60
2023-04-30T06:59:44.236Z,11.68
2023-04-30T07:02:12.509Z,11.80
2023-04-30T07:04:40.736Z,11.84
2023-04-30T07:07:09.619Z,11.92
2023-04-30T07:09:37.780Z,11.85
2023-04-30T07:12:05.964Z,11.88
2023-04-30T07:14:35.478Z,11.93
2023-04-30T07:17:03.628Z,11.99
2023-04-30T07:19:32.521Z,12.15
2023-04-30T07:22:00.854Z,12.41
2023-04-30T07:24:29.054Z,12.55
2023-04-30T07:26:57.281Z,12.51
2023-04-30T07:29:25.608Z,12.53
2023-04-30T07:31:55.299Z,12.60
2023-04-30T07:34:23.657Z,12.57
2023-04-30T07:36:51.839Z,12.64
2023-04-30T07:39:20.026Z,12.79
2023-04-30T07:41:48.246Z,13.02
2023-04-30T07:44:16.782Z,13.23
2023-04-30T07:46:45.061Z,13.25
2023-04-30T07:49:14.637Z,13.34
2023-04-30T07:51:43.324Z,13.30
2023-04-30T07:54:11.465Z,13.59
2023-04-30T07:56:39.703Z,13.68
2023-04-30T07:59:07.892Z,13.95
2023-04-30T08:01:36.611Z,13.81
2023-04-30T08:04:10.750Z,13.71
2023-04-30T08:06:40.690Z,13.71
2023-04-30T08:09:09.279Z,13.83
2023-04-30T08:11:37.953Z,14.06
2023-04-30T08:14:06.993Z,14.12
2023-04-30T08:16:35.427Z,14.18
2023-04-30T08:19:04.132Z,14.13
2023-04-30T08:21:32.397Z,14.07
2023-04-30T08:24:02.105Z,14.28
2023-04-30T08:26:30.429Z,14.33
2023-04-30T08:28:58.597Z,14.46
2023-04-30T08:31:26.981Z,14.62
2023-04-30T08:33:55.566Z,14.69
2023-04-30T08:36:23.803Z,14.62
2023-04-30T08:38:51.955Z,14.41
2023-04-30T08:41:27.257Z,14.39
2023-04-30T08:43:55.878Z,14.07
2023-04-30T08:46:25.910Z,14.00
2023-04-30T08:48:54.268Z,13.94
2023-04-30T08:51:23.017Z,14.02
2023-04-30T08:53:52.302Z,14.28
2023-04-30T08:56:24.721Z,14.17
2023-04-30T08:58:53.548Z,14.02
2023-04-30T09:01:22.354Z,14.14
2023-04-30T09:03:50.768Z,14.14
2023-04-30T09:06:19.097Z,13.70
2023-04-30T09:08:49.116Z,14.16
2023-04-30T09:11:27.226Z,14.39
2023-04-30T09:13:57.379Z,14.39
2023-04-30T09:16:26.906Z,14.42
2023-04-30T09:18:56.427Z,14.46
2023-04-30T09:21:33.617Z,14.34
2023-04-30T09:24:03.360Z,14.39
2023-04-30T09:26:37.944Z,14.10
2023-04-30T09:29:08.888Z,14.37
2023-04-30T09:31:38.672Z,14.40
2023-04-30T09:34:08.057Z,13.69
2023-04-30T09:36:36.817Z,14.43
2023-04-30T09:39:14.218Z,14.46
2023-04-30T09:41:45.364Z,14.50
2023-04-30T09:44:29.246Z,14.43
2023-04-30T09:46:58.980Z,14.02
2023-04-30T09:49:28.195Z,14.34
2023-04-30T09:51:57.812Z,14.29
2023-04-30T09:54:29.514Z,14.37
2023-04-30T09:57:01.704Z,14.31
2023-04-30T09:59:32.133Z,14.50
2023-04-30T10:02:25.968Z,14.78
2023-04-30T10:05:22.921Z,14.74
2023-04-30T10:07:51.264Z,14.82
2023-04-30T10:10:20.728Z,14.80
2023-04-30T10:12:53.719Z,14.59
2023-04-30T10:15:27.091Z,14.73
2023-04-30T10:18:07.069Z,14.78
2023-04-30T10:20:37.868Z,14.83
2023-04-30T10:23:07.109Z,14.98
2023-04-30T10:25:35.679Z,14.92
2023-04-30T10:28:05.589Z,14.82
2023-04-30T10:30:34.189Z,14.88
2023-04-30T10:33:17.197Z,14.96
2023-04-30T10:35:50.845Z,15.27
2023-04-30T10:38:25.122Z,15.34
2023-04-30T10:40:58.049Z,14.82
2023-04-30T10:43:30.413Z,15.62
2023-04-30T10:45:59.932Z,15.61
2023-04-30T10:48:29.187Z,15.36
2023-04-30T10:50:59.449Z,15.54
2023-04-30T10:53:31.439Z,15.34
2023-04-30T10:56:06.570Z,15.31
2023-04-30T10:58:38.611Z,15.15
2023-04-30T11:01:10.989Z,14.96
2023-04-30T11:03:42.449Z,14.92
2023-04-30T11:06:13.433Z,14.97
2023-04-30T11:08:46.440Z,14.88
2023-04-30T11:11:21.244Z,15.03
2023-04-30T11:14:02.701Z,14.77
2023-04-30T11:16:31.556Z,15.06
2023-04-30T11:19:10.095Z,15.00
2023-04-30T11:21:42.187Z,14.85
2023-04-30T11:24:10.438Z,14.83
2023-04-30T11:27:06.892Z,14.66
2023-04-30T11:29:37.439Z,14.82
2023-04-30T11:32:06.436Z,14.94
2023-04-30T11:34:36.530Z,14.97
2023-04-30T11:37:04.855Z,15.16
2023-04-30T11:39:37.594Z,15.18
2023-04-30T11:42:05.810Z,15.21
2023-04-30T11:44:34.108Z,15.26
2023-04-30T11:47:10.656Z,15.26
2023-04-30T11:49:39.053Z,15.37
2023-04-30T11:52:08.886Z,14.67
2023-04-30T11:54:38.928Z,15.37
2023-04-30T11:57:07.381Z,15.22
2023-04-30T11:59:42.288Z,14.71
2023-04-30T12:02:16.762Z,15.58
2023-04-30T12:04:48.431Z,15.59
2023-04-30T12:07:22.657Z,15.47
2023-04-30T12:09:56.291Z,15.49
2023-04-30T12:12:38.782Z,15.66
2023-04-30T12:15:15.967Z,15.96
2023-04-30T12:17:46.545Z,15.72
2023-04-30T12:20:16.300Z,15.75
2023-04-30T12:22:45.761Z,15.71
2023-04-30T12:25:17.945Z,15.62
2023-04-30T12:27:49.202Z,15.56
2023-04-30T12:30:22.340Z,15.64
2023-04-30T12:32:54.674Z,15.68
2023-04-30T12:35:24.907Z,15.78
2023-04-30T12:37:57.345Z,16.05
2023-04-30T12:40:29.483Z,16.33
2023-04-30T12:43:03.102Z,16.40
2023-04-30T12:45:45.484Z,16.31
2023-04-30T12:48:17.106Z,16.39
2023-04-30T12:50:53.734Z,16.74
2023-04-30T12:53:22.570Z,16.63
2023-04-30T12:56:12.194Z,16.13
2023-04-30T12:58:40.833Z,16.11
2023-04-30T13:01:13.788Z,16.05
2023-04-30T13:03:43.697Z,16.28
2023-04-30T13:06:12.302Z,16.74
2023-04-30T13:08:56.283Z,17.02
2023-04-30T13:11:27.789Z,17.29
2023-04-30T13:13:56.669Z,17.62
2023-04-30T13:16:25.960Z,17.84
2023-04-30T13:18:56.020Z,17.69
2023-04-30T13:21:25.186Z,17.67
2023-04-30T13:23:54.829Z,17.57
2023-04-30T13:26:24.535Z,17.64
2023-04-30T13:28:52.952Z,18.25
2023-04-30T13:31:22.184Z,18.21
2023-04-30T13:33:50.769Z,18.21
2023-04-30T13:36:20.961Z,18.68
2023-04-30T13:38:49.187Z,18.43
2023-04-30T13:41:17.369Z,18.46
2023-04-30T13:43:46.440Z,18.77
2023-04-30T13:46:15.019Z,18.91
2023-04-30T13:48:43.643Z,19.01
2023-04-30T13:51:11.778Z,19.05
2023-04-30T13:53:41.272Z,18.85
2023-04-30T13:56:10.194Z,18.31
2023-04-30T13:58:38.573Z,18.54
2023-04-30T14:01:06.930Z,18.70
2023-04-30T14:03:59.966Z,18.58
2023-04-30T14:06:29.568Z,18.28
2023-04-30T14:08:59.224Z,19.31
2023-04-30T14:11:28.358Z,19.58
2023-04-30T14:13:56.738Z,19.73
2023-04-30T14:16:25.037Z,20.10
2023-04-30T14:18:53.276Z,20.16
2023-04-30T14:21:21.568Z,19.87
2023-04-30T14:23:49.747Z,19.32
2023-04-30T14:26:19.520Z,19.62
2023-04-30T14:28:47.722Z,19.69
2023-04-30T14:31:15.926Z,19.81
2023-04-30T14:33:44.340Z,19.72
2023-04-30T14:36:12.651Z,19.79
2023-04-30T14:38:40.913Z,20.01
2023-04-30T14:41:09.060Z,19.96
2023-04-30T14:43:38.601Z,20.07
2023-04-30T14:46:07.021Z,19.67
2023-04-30T14:48:35.303Z,19.30
2023-04-30T14:51:03.573Z,19.63
2023-04-30T14:53:32.353Z,19.45
2023-04-30T14:56:00.926Z,19.42
2023-04-30T14:58:29.111Z,19.31
2023-04-30T15:00:58.676Z,19.61
2023-04-30T15:03:27.124Z,19.83
2023-04-30T15:05:55.983Z,19.57
2023-04-30T15:08:24.274Z,19.37
2023-04-30T15:10:52.498Z,19.92
2023-04-30T15:13:20.717Z,19.77
2023-04-30T15:15:49.742Z,20.04
2023-04-30T15:18:19.493Z,19.97
2023-04-30T15:20:47.682Z,19.77
2023-04-30T15:23:15.913Z,19.48
2023-04-30T15:25:44.243Z,19.32
2023-04-30T15:28:12.484Z,19.25
2023-04-30T15:30:40.756Z,19.18
2023-04-30T15:33:08.985Z,18.81
2023-04-30T15:35:38.636Z,18.98
2023-04-30T15:38:06.875Z,19.08
2023-04-30T15:40:36.957Z,19.07
2023-04-30T15:43:06.030Z,18.77
2023-04-30T15:45:34.578Z,18.92
2023-04-30T15:48:04.857Z,19.10
2023-04-30T15:50:33.545Z,19.37
2023-04-30T15:53:03.135Z,19.08
2023-04-30T15:55:31.343Z,19.20
2023-04-30T15:57:59.545Z,18.86
2023-04-30T16:00:28.722Z,18.81
2023-04-30T16:02:58.167Z,18.90
2023-04-30T16:05:26.758Z,18.91
2023-04-30T16:07:55.460Z,18.73
2023-04-30T16:10:25.052Z,18.91
2023-04-30T16:12:53.546Z,18.99
2023-04-30T16:15:21.803Z,18.77
2023-04-30T16:17:50.030Z,18.74
2023-04-30T16:20:18.255Z,18.55
2023-04-30T16:22:47.483Z,18.20
2023-04-30T16:25:15.651Z,18.19
2023-04-30T16:27:46.111Z,17.89
2023-04-30T16:30:14.631Z,17.85
2023-04-30T16:32:42.949Z,17.91
2023-04-30T16:35:11.436Z,17.92
2023-04-30T16:37:46.937Z,17.87
2023-04-30T16:40:15.149Z,17.91
2023-04-30T16:42:44.989Z,18.09
2023-04-30T16:45:13.258Z,17.93
2023-04-30T16:47:41.435Z,17.95
2023-04-30T16:50:10.671Z,17.89
2023-04-30T16:52:38.893Z,17.78
2023-04-30T16:55:10.270Z,17.65
2023-04-30T16:57:38.481Z,17.76
2023-04-30T17:00:11.418Z,17.78
2023-04-30T17:02:40.892Z,17.75
2023-04-30T17:05:11.458Z,17.63
2023-04-30T17:07:39.721Z,17.57
2023-04-30T17:10:09.810Z,17.45
2023-04-30T17:12:38.155Z,17.50
2023-04-30T17:15:09.085Z,17.39
2023-04-30T17:17:37.278Z,17.39
2023-04-30T17:20:06.620Z,17.38
2023-04-30T17:22:34.882Z,17.10
2023-04-30T17:25:04.107Z,17.04
2023-04-30T17:27:32.288Z,16.93
2023-04-30T17:30:00.502Z,16.79
2023-04-30T17:32:30.473Z,16.74
2023-04-30T17:35:00.166Z,16.67
2023-04-30T17:37:28.477Z,17.26
2023-04-30T17:39:57.472Z,16.50
2023-04-30T17:42:26.087Z,16.21
2023-04-30T17:44:54.253Z,16.24
2023-04-30T17:47:22.973Z,16.17
2023-04-30T17:49:52.844Z,16.08
2023-04-30T17:52:21.268Z,15.98
2023-04-30T17:54:49.403Z,15.93
2023-04-30T17:57:17.603Z,15.71
2023-04-30T17:59:45.835Z,15.65
2023-04-30T18:02:14.238Z,15.56
2023-04-30T18:04:50.836Z,15.47
2023-04-30T18:07:31.788Z,15.42
2023-04-30T18:10:03.162Z,15.21
2023-04-30T18:12:31.489Z,15.03
2023-04-30T18:15:00.660Z,15.03
2023-04-30T18:17:28.859Z,14.77
2023-04-30T18:19:57.380Z,14.66
2023-04-30T18:22:25.731Z,14.60
2023-04-30T18:24:55.369Z,14.43
2023-04-30T18:27:23.549Z,14.39
2023-04-30T18:29:52.193Z,14.36
2023-04-30T18:32:20.432Z,14.23
2023-04-30T18:34:48.604Z,14.16
2023-04-30T18:37:17.805Z,14.10
2023-04-30T18:39:45.973Z,13.84
2023-04-30T18:42:15.576Z,13.94
2023-04-30T18:44:43.840Z,13.80
2023-04-30T18:47:12.274Z,13.48
2023-04-30T18:49:41.414Z,13.37
2023-04-30T18:52:09.828Z,12.79
2023-04-30T18:54:38.085Z,13.07
2023-04-30T18:57:06.789Z,13.06
2023-04-30T18:59:36.326Z,12.90
2023-04-30T19:02:04.668Z,12.75
2023-04-30T19:04:32.988Z,12.65
2023-04-30T19:07:01.235Z,12.73
2023-04-30T19:09:29.431Z,12.65
2023-04-30T19:11:57.926Z,12.68
2023-04-30T19:14:26.283Z,12.68
2023-04-30T19:16:57.311Z,12.52
2023-04-30T19:19:25.796Z,12.48
2023-04-30T19:21:54.504Z,12.29
2023-04-30T19:24:23.709Z,12.16
2023-04-30T19:26:52.363Z,11.98
2023-04-30T19:29:20.657Z,12.02
2023-04-30T19:31:49.014Z,11.85
2023-04-30T19:34:18.682Z,11.76
2023-04-30T19:36:47.575Z,11.75
2023-04-30T19:39:16.393Z,11.65
2023-04-30T19:41:44.617Z,11.63
2023-04-30T19:44:12.896Z,11.55
2023-04-30T19:46:42.356Z,11.53
2023-04-30T19:49:10.763Z,11.14
2023-04-30T19:51:40.365Z,11.52
2023-04-30T19:54:13.850Z,11.48
2023-04-30T19:56:42.534Z,11.43
2023-04-30T19:59:11.152Z,10.60
2023-04-30T20:01:41.715Z,11.41
2023-04-30T20:04:11.353Z,11.39
2023-04-30T20:06:41.217Z,11.30
2023-04-30T20:09:15.091Z,11.20
2023-04-30T20:11:49.339Z,11.13
2023-04-30T20:14:17.590Z,11.19
2023-04-30T20:16:46.225Z,11.11
2023-04-30T20:19:14.642Z,11.00
2023-04-30T20:21:44.363Z,11.10
2023-04-30T20:24:12.680Z,11.01
2023-04-30T20:26:42.215Z,10.92
2023-04-30T20:29:11.765Z,10.92
2023-04-30T20:31:40.417Z,10.95
2023-04-30T20:34:08.809Z,10.75
2023-04-30T20:36:37.040Z,10.73
2023-04-30T20:39:06.898Z,10.64
2023-04-30T20:41:35.762Z,10.27
2023-04-30T20:44:04.624Z,10.24
2023-04-30T20:46:32.853Z,10.22
2023-04-30T20:49:04.440Z,10.48
2023-04-30T20:51:32.987Z,10.33
2023-04-30T20:54:01.202Z,10.43
2023-04-30T20:56:31.351Z,10.37
2023-04-30T20:58:59.552Z,10.33
2023-04-30T21:01:28.095Z,10.36
2023-04-30T21:03:56.655Z,10.35
2023-04-30T21:06:24.917Z,10.27
2023-04-30T21:08:53.126Z,10.07
2023-04-30T21:11:21.398Z,10.11
2023-04-30T21:13:51.445Z,9.93
2023-04-30T21:16:20.143Z,9.79
2023-04-30T21:18:48.777Z,9.72
2023-04-30T21:21:17.039Z,9.68
2023-04-30T21:23:48.052Z,9.63
2023-04-30T21:26:16.662Z,9.70
2023-04-30T21:28:45.123Z,9.54
2023-04-30T21:31:15.097Z,8.91
2023-04-30T21:33:43.337Z,9.53
2023-04-30T21:36:11.568Z,9.47
2023-04-30T21:38:39.790Z,9.43
2023-04-30T21:41:07.955Z,9.38
2023-04-30T21:43:36.983Z,9.34
2023-04-30T21:46:05.376Z,9.44
2023-04-30T21:48:35.158Z,9.36
2023-04-30T21:51:04.387Z,9.35
2023-04-30T21:53:32.644Z,9.30
2023-04-30T21:56:08.043Z,9.17
2023-04-30T21:58:36.407Z,9.25
2023-04-30T22:01:05.664Z,9.08
2023-04-30T22:03:35.860Z,8.40
2023-04-30T22:06:04.794Z,8.97
2023-04-30T22:08:33.607Z,9.07
2023-04-30T22:11:03.446Z,8.39
2023-04-30T22:13:31.961Z,9.04
2023-04-30T22:16:00.190Z,7.82
2023-04-30T22:18:28.458Z,9.01
2023-04-30T22:20:58.104Z,8.99
2023-04-30T22:23:26.424Z,8.91
2023-04-30T22:25:54.614Z,8.91
2023-04-30T22:28:23.459Z,8.90
2023-04-30T22:30:58.597Z,8.93
2023-04-30T22:33:27.266Z,8.79
2023-04-30T22:35:57.603Z,8.86
2023-04-30T22:38:25.832Z,8.60
2023-04-30T22:40:54.140Z,8.71
2023-04-30T22:43:22.595Z,8.59
2023-04-30T22:45:51.114Z,8.66
2023-04-30T22:48:19.484Z,8.78
2023-04-30T22:50:47.945Z,8.81
2023-04-30T22:53:17.538Z,8.82
2023-04-30T22:55:46.106Z,8.15
2023-04-30T22:58:14.336Z,8.64
2023-04-30T23:00:42.699Z,8.75
2023-04-30T23:03:11.314Z,8.81
2023-04-30T23:05:39.694Z,8.94
2023-04-30T23:08:08.007Z,8.76
2023-04-30T23:10:37.610Z,8.74
2023-04-30T23:13:05.851Z,8.63
2023-04-30T23:15:34.173Z,8.82
2023-04-30T23:18:02.485Z,8.81
2023-04-30T23:20:30.772Z,8.86
2023-04-30T23:22:58.942Z,8.77
2023-04-30T23:25:27.289Z,8.68
2023-04-30T23:27:58.073Z,8.82
2023-04-30T23:30:26.994Z,8.74
2023-04-30T23:32:55.631Z,8.70
2023-04-30T23:35:24.025Z,8.70
2023-04-30T23:37:52.193Z,8.70
2023-04-30T23:40:20.501Z,8.74
2023-04-30T23:42:48.707Z,8.71
2023-04-30T23:45:18.475Z,8.74
2023-04-30T23:47:48.349Z,8.65
2023-04-30T23:50:16.919Z,8.69
2023-04-30T23:52:45.130Z,8.78
2023-04-30T23:55:13.742Z,8.68
2023-04-30T23:57:42.591Z,8.71
